createdAt,value
2022-12-18T16:54:13.583Z,2.65
2022-12-18T16:56:44.238Z,2.72
2022-12-18T17:00:59.943Z,11.15
2022-12-18T17:03:26.950Z,11.05
2022-12-18T17:05:53.819Z,10.93
2022-12-18T17:08:20.668Z,9.98
2022-12-18T17:10:47.355Z,11.68
2022-12-18T17:13:14.566Z,11.00
2022-12-18T17:15:44.931Z,10.93
2022-12-18T17:18:11.791Z,10.57
2022-12-18T17:20:38.579Z,9.93
2022-12-18T17:23:07.002Z,8.27
2022-12-18T17:25:34.010Z,10.18
2022-12-18T17:28:00.853Z,8.73
2022-12-18T17:30:27.693Z,9.43
2022-12-18T17:32:54.779Z,8.27
2022-12-18T17:35:21.592Z,9.20
2022-12-18T17:37:48.710Z,9.07
2022-12-18T17:40:15.505Z,8.90
2022-12-18T17:42:42.519Z,8.98
2022-12-18T17:45:09.994Z,9.18
2022-12-18T17:47:37.189Z,9.77
2022-12-18T17:50:04.800Z,8.63
2022-12-18T17:52:34.289Z,7.88
2022-12-18T17:55:01.238Z,8.35
2022-12-18T17:57:28.047Z,7.80
2022-12-18T17:59:55.149Z,8.57
2022-12-18T18:02:22.476Z,9.88
2022-12-18T18:04:49.903Z,7.35
2022-12-18T18:07:16.687Z,9.20
2022-12-18T18:09:43.500Z,8.80
2022-12-18T18:12:29.037Z,9.52
2022-12-18T18:14:56.149Z,8.27
2022-12-18T18:17:29.189Z,8.88
2022-12-18T18:19:56.064Z,9.50
2022-12-18T18:22:23.064Z,8.00
2022-12-18T18:24:51.568Z,7.82
2022-12-18T18:27:22.479Z,8.60
2022-12-18T18:32:16.309Z,9.32
2022-12-18T18:34:46.073Z,7.93
2022-12-18T18:37:13.102Z,9.50
2022-12-18T18:39:39.955Z,8.57
2022-12-18T18:42:06.866Z,10.68
2022-12-18T18:44:36.039Z,9.32
2022-12-18T18:47:02.830Z,8.38
2022-12-18T18:49:32.601Z,9.05
2022-12-18T18:52:00.204Z,8.35
2022-12-18T18:54:27.244Z,6.82
2022-12-18T18:59:41.552Z,8.25
2022-12-18T19:02:13.711Z,8.40
2022-12-18T19:04:45.968Z,9.20
2022-12-18T19:07:15.068Z,10.60
2022-12-18T19:09:57.771Z,8.15
2022-12-18T19:12:54.611Z,10.30
2022-12-18T19:15:21.869Z,7.40
2022-12-18T19:17:49.287Z,9.35
2022-12-18T19:20:16.379Z,9.00
2022-12-18T19:22:43.785Z,8.85
2022-12-18T19:25:12.219Z,9.95
2022-12-18T19:27:40.073Z,10.18
2022-12-18T19:30:07.668Z,9.10
2022-12-18T19:32:34.941Z,11.13
2022-12-18T19:35:02.229Z,10.65
2022-12-18T19:37:29.226Z,9.43
2022-12-18T19:39:56.783Z,9.95
2022-12-18T19:42:29.277Z,11.30
2022-12-18T19:45:00.322Z,9.05
2022-12-18T19:47:27.148Z,10.95
2022-12-18T19:49:53.936Z,10.65
2022-12-18T19:52:20.724Z,10.18
2022-12-18T19:54:47.880Z,10.13
2022-12-18T19:57:14.638Z,11.88
2022-12-18T19:59:44.145Z,10.82
2022-12-18T20:02:15.073Z,10.52
2022-12-18T20:04:44.620Z,11.35
2022-12-18T20:07:11.695Z,11.68
2022-12-18T20:09:38.616Z,11.00
2022-12-18T20:12:05.891Z,10.60
2022-12-18T20:14:32.959Z,11.20
2022-12-18T20:17:00.625Z,10.43
2022-12-18T20:19:27.762Z,11.93
2022-12-18T20:21:54.608Z,11.93
2022-12-18T20:24:21.640Z,11.52
2022-12-18T20:26:48.633Z,11.68
2022-12-18T20:29:15.987Z,10.32
2022-12-18T20:31:43.075Z,11.50
2022-12-18T20:34:09.915Z,12.68
2022-12-18T20:36:37.633Z,12.30
2022-12-18T20:39:07.621Z,10.05
2022-12-18T20:41:38.118Z,10.73
2022-12-18T20:44:10.955Z,10.05
2022-12-18T20:46:52.810Z,11.90
2022-12-18T20:49:20.082Z,11.32
2022-12-18T20:51:50.672Z,14.10
2022-12-18T20:54:20.350Z,11.23
2022-12-18T20:56:47.200Z,10.55
2022-12-18T20:59:17.176Z,11.10
2022-12-18T21:01:48.365Z,11.98
2022-12-18T21:04:18.344Z,12.50
2022-12-18T21:06:52.099Z,13.35
2022-12-18T21:09:20.574Z,11.02
2022-12-18T21:12:06.304Z,12.95
2022-12-18T21:14:33.477Z,11.93
2022-12-18T21:17:02.251Z,11.75
2022-12-18T21:19:29.752Z,12.65
2022-12-18T21:21:57.711Z,12.80
2022-12-18T21:24:25.788Z,11.63
2022-12-18T21:26:56.846Z,12.82
2022-12-18T21:29:26.122Z,11.50
2022-12-18T21:31:54.973Z,10.63
2022-12-18T21:34:28.064Z,11.07
2022-12-18T21:36:56.331Z,10.45
2022-12-18T21:39:24.657Z,11.07
2022-12-18T21:42:10.293Z,13.18
2022-12-18T21:44:42.375Z,12.48
2022-12-18T21:47:22.611Z,11.75
2022-12-18T21:49:54.156Z,11.45
2022-12-18T21:55:06.139Z,10.02
2022-12-18T21:57:36.346Z,11.88
2022-12-18T22:00:04.821Z,12.40
2022-12-18T22:02:32.493Z,12.57
2022-12-18T22:05:00.030Z,11.80
2022-12-18T22:07:29.127Z,11.90
2022-12-18T22:09:55.862Z,11.60
2022-12-18T22:12:43.988Z,12.13
2022-12-18T22:15:18.639Z,11.43
2022-12-18T22:17:49.464Z,11.32
2022-12-18T22:20:16.747Z,11.75
2022-12-18T22:22:43.896Z,11.63
2022-12-18T22:25:11.325Z,11.60
2022-12-18T22:27:38.499Z,10.75
2022-12-18T22:30:05.926Z,12.13
2022-12-18T22:32:36.230Z,11.32
2022-12-18T22:35:10.405Z,12.02
2022-12-18T22:37:39.577Z,13.02
2022-12-18T22:40:07.471Z,12.50
2022-12-18T22:42:35.712Z,11.10
2022-12-18T22:45:02.526Z,11.05
2022-12-18T22:47:30.625Z,13.48
2022-12-18T22:49:58.345Z,11.80
2022-12-18T22:52:25.598Z,13.40
2022-12-18T22:54:54.105Z,12.73
2022-12-18T22:57:24.814Z,13.45
2022-12-18T22:59:51.867Z,14.02
2022-12-18T23:02:19.848Z,13.82
2022-12-18T23:04:47.562Z,12.85
2022-12-18T23:07:15.898Z,12.27
2022-12-18T23:09:42.987Z,14.35
2022-12-18T23:12:20.350Z,13.98
2022-12-18T23:14:47.589Z,13.07
2022-12-18T23:17:16.857Z,13.65
2022-12-18T23:19:48.807Z,14.23
2022-12-18T23:22:16.926Z,13.10
2022-12-18T23:24:43.720Z,12.45
2022-12-18T23:27:11.408Z,13.30
2022-12-18T23:29:39.923Z,14.30
2022-12-18T23:32:07.696Z,13.35
2022-12-18T23:34:34.751Z,13.32
2022-12-18T23:37:03.449Z,13.30
2022-12-18T23:39:30.603Z,13.88
2022-12-18T23:41:58.736Z,12.57
2022-12-18T23:44:26.080Z,13.77
2022-12-18T23:46:53.102Z,13.15
2022-12-18T23:49:20.213Z,12.82
2022-12-18T23:51:47.047Z,12.98
2022-12-18T23:54:13.899Z,11.45
2022-12-18T23:56:40.873Z,12.77
2022-12-18T23:59:08.876Z,11.98
